sensor_id;sensor_type;location;lat;lon;timestamp;P1;durP1;ratioP1;P2;durP2;ratioP2
70342;SDS011;57767;42.068;24.752;2023-07-31T00:00:52;4.88;;;3.05;;
70342;SDS011;57767;42.068;24.752;2023-07-31T00:01:54;3.58;;;2.72;;
70342;SDS011;57767;42.068;24.752;2023-07-31T00:02:55;4.15;;;2.92;;
70342;SDS011;57767;42.068;24.752;2023-07-31T00:03:59;3.92;;;2.83;;
70342;SDS011;57767;42.068;24.752;2023-07-31T00:05:01;3.90;;;3.00;;
70342;SDS011;57767;42.068;24.752;2023-07-31T00:06:03;4.28;;;3.17;;
70342;SDS011;57767;42.068;24.752;2023-07-31T00:07:05;8.30;;;3.60;;
70342;SDS011;57767;42.068;24.752;2023-07-31T00:08:07;5.30;;;2.95;;
70342;SDS011;57767;42.068;24.752;2023-07-31T00:09:09;3.92;;;2.30;;
70342;SDS011;57767;42.068;24.752;2023-07-31T00:10:11;5.32;;;2.45;;
70342;SDS011;57767;42.068;24.752;2023-07-31T00:11:13;3.17;;;2.42;;
70342;SDS011;57767;42.068;24.752;2023-07-31T00:12:15;4.10;;;2.55;;
70342;SDS011;57767;42.068;24.752;2023-07-31T00:13:16;3.38;;;2.45;;
70342;SDS011;57767;42.068;24.752;2023-07-31T00:14:18;3.92;;;2.28;;
70342;SDS011;57767;42.068;24.752;2023-07-31T00:15:20;3.72;;;1.92;;
70342;SDS011;57767;42.068;24.752;2023-07-31T00:16:22;4.25;;;1.90;;
70342;SDS011;57767;42.068;24.752;2023-07-31T00:17:24;3.65;;;2.35;;
70342;SDS011;57767;42.068;24.752;2023-07-31T00:18:26;2.90;;;2.00;;
70342;SDS011;57767;42.068;24.752;2023-07-31T00:19:27;10.27;;;2.70;;
70342;SDS011;57767;42.068;24.752;2023-07-31T00:20:29;4.80;;;2.50;;
70342;SDS011;57767;42.068;24.752;2023-07-31T00:21:31;4.32;;;2.38;;
70342;SDS011;57767;42.068;24.752;2023-07-31T00:22:33;3.30;;;2.20;;
70342;SDS011;57767;42.068;24.752;2023-07-31T00:23:34;4.80;;;2.15;;
70342;SDS011;57767;42.068;24.752;2023-07-31T00:24:36;5.10;;;2.35;;
70342;SDS011;57767;42.068;24.752;2023-07-31T00:25:38;4.07;;;2.10;;
70342;SDS011;57767;42.068;24.752;2023-07-31T00:26:40;7.15;;;2.50;;
70342;SDS011;57767;42.068;24.752;2023-07-31T00:27:42;3.63;;;2.15;;
70342;SDS011;57767;42.068;24.752;2023-07-31T00:28:46;3.78;;;1.90;;
70342;SDS011;57767;42.068;24.752;2023-07-31T00:29:48;3.88;;;2.10;;
70342;SDS011;57767;42.068;24.752;2023-07-31T00:30:50;3.67;;;1.77;;
70342;SDS011;57767;42.068;24.752;2023-07-31T00:31:52;2.58;;;1.80;;
70342;SDS011;57767;42.068;24.752;2023-07-31T00:32:54;3.53;;;2.20;;
70342;SDS011;57767;42.068;24.752;2023-07-31T00:33:56;4.95;;;2.17;;
70342;SDS011;57767;42.068;24.752;2023-07-31T00:34:57;5.10;;;1.98;;
70342;SDS011;57767;42.068;24.752;2023-07-31T00:35:59;3.75;;;2.40;;
70342;SDS011;57767;42.068;24.752;2023-07-31T00:37:01;2.58;;;2.30;;
70342;SDS011;57767;42.068;24.752;2023-07-31T00:38:05;3.35;;;2.42;;
70342;SDS011;57767;42.068;24.752;2023-07-31T00:39:07;5.53;;;2.42;;
70342;SDS011;57767;42.068;24.752;2023-07-31T00:40:08;4.13;;;2.22;;
70342;SDS011;57767;42.068;24.752;2023-07-31T00:41:10;8.52;;;2.42;;
70342;SDS011;57767;42.068;24.752;2023-07-31T00:42:12;6.47;;;2.28;;
70342;SDS011;57767;42.068;24.752;2023-07-31T00:43:14;4.68;;;2.38;;
70342;SDS011;57767;42.068;24.752;2023-07-31T00:44:16;4.10;;;2.45;;
70342;SDS011;57767;42.068;24.752;2023-07-31T00:45:17;5.25;;;2.15;;
70342;SDS011;57767;42.068;24.752;2023-07-31T00:46:19;4.57;;;2.38;;
70342;SDS011;57767;42.068;24.752;2023-07-31T00:47:22;3.55;;;2.40;;
70342;SDS011;57767;42.068;24.752;2023-07-31T00:48:24;3.05;;;2.50;;
70342;SDS011;57767;42.068;24.752;2023-07-31T00:49:26;3.00;;;2.22;;
70342;SDS011;57767;42.068;24.752;2023-07-31T00:50:28;3.83;;;2.72;;
70342;SDS011;57767;42.068;24.752;2023-07-31T00:51:31;3.92;;;2.40;;
70342;SDS011;57767;42.068;24.752;2023-07-31T00:52:32;3.85;;;2.42;;
70342;SDS011;57767;42.068;24.752;2023-07-31T00:53:35;4.90;;;2.55;;
70342;SDS011;57767;42.068;24.752;2023-07-31T00:54:42;3.72;;;2.30;;
70342;SDS011;57767;42.068;24.752;2023-07-31T00:55:44;5.00;;;2.50;;
70342;SDS011;57767;42.068;24.752;2023-07-31T00:56:46;3.83;;;2.42;;
70342;SDS011;57767;42.068;24.752;2023-07-31T00:57:50;3.03;;;2.22;;
70342;SDS011;57767;42.068;24.752;2023-07-31T00:58:54;9.48;;;2.45;;
70342;SDS011;57767;42.068;24.752;2023-07-31T00:59:56;4.00;;;2.75;;
70342;SDS011;57767;42.068;24.752;2023-07-31T01:00:58;4.00;;;2.25;;
70342;SDS011;57767;42.068;24.752;2023-07-31T01:02:00;3.35;;;2.47;;
70342;SDS011;57767;42.068;24.752;2023-07-31T01:03:02;4.57;;;2.15;;
70342;SDS011;57767;42.068;24.752;2023-07-31T01:04:04;3.70;;;2.63;;
70342;SDS011;57767;42.068;24.752;2023-07-31T01:05:06;4.03;;;2.80;;
70342;SDS011;57767;42.068;24.752;2023-07-31T01:09:44;4.05;;;2.70;;
70342;SDS011;57767;42.068;24.752;2023-07-31T01:11:07;9.35;;;3.00;;
70342;SDS011;57767;42.068;24.752;2023-07-31T01:12:17;4.22;;;2.95;;
70342;SDS011;57767;42.068;24.752;2023-07-31T01:13:19;5.80;;;2.42;;
70342;SDS011;57767;42.068;24.752;2023-07-31T01:14:21;5.90;;;2.90;;
70342;SDS011;57767;42.068;24.752;2023-07-31T01:15:23;6.13;;;2.90;;
70342;SDS011;57767;42.068;24.752;2023-07-31T01:16:25;4.05;;;2.88;;
70342;SDS011;57767;42.068;24.752;2023-07-31T01:17:28;6.30;;;2.75;;
70342;SDS011;57767;42.068;24.752;2023-07-31T01:18:30;6.88;;;3.33;;
70342;SDS011;57767;42.068;24.752;2023-07-31T01:19:32;5.43;;;2.63;;
70342;SDS011;57767;42.068;24.752;2023-07-31T01:20:33;4.00;;;2.65;;
70342;SDS011;57767;42.068;24.752;2023-07-31T01:26:45;5.63;;;2.90;;
70342;SDS011;57767;42.068;24.752;2023-07-31T01:28:05;2.90;;;2.60;;
70342;SDS011;57767;42.068;24.752;2023-07-31T01:30:28;5.70;;;2.97;;
70342;SDS011;57767;42.068;24.752;2023-07-31T01:31:37;4.25;;;3.00;;
70342;SDS011;57767;42.068;24.752;2023-07-31T01:32:42;5.15;;;2.72;;
70342;SDS011;57767;42.068;24.752;2023-07-31T01:33:45;4.32;;;3.00;;
70342;SDS011;57767;42.068;24.752;2023-07-31T01:34:47;4.40;;;2.70;;
70342;SDS011;57767;42.068;24.752;2023-07-31T01:35:50;3.80;;;2.90;;
70342;SDS011;57767;42.068;24.752;2023-07-31T01:36:53;3.80;;;2.60;;
70342;SDS011;57767;42.068;24.752;2023-07-31T01:37:55;4.32;;;2.40;;
70342;SDS011;57767;42.068;24.752;2023-07-31T01:38:59;6.50;;;2.45;;
70342;SDS011;57767;42.068;24.752;2023-07-31T01:40:02;5.43;;;2.70;;
70342;SDS011;57767;42.068;24.752;2023-07-31T01:41:05;4.07;;;2.63;;
70342;SDS011;57767;42.068;24.752;2023-07-31T01:42:07;5.82;;;2.70;;
70342;SDS011;57767;42.068;24.752;2023-07-31T01:43:09;5.55;;;2.35;;
70342;SDS011;57767;42.068;24.752;2023-07-31T01:44:11;2.92;;;2.28;;
70342;SDS011;57767;42.068;24.752;2023-07-31T01:45:12;4.53;;;2.17;;
70342;SDS011;57767;42.068;24.752;2023-07-31T01:46:14;3.03;;;2.05;;
70342;SDS011;57767;42.068;24.752;2023-07-31T01:47:16;7.05;;;2.47;;
70342;SDS011;57767;42.068;24.752;2023-07-31T01:48:18;3.80;;;2.35;;
70342;SDS011;57767;42.068;24.752;2023-07-31T01:49:20;3.63;;;2.85;;
70342;SDS011;57767;42.068;24.752;2023-07-31T01:50:21;3.15;;;2.22;;
70342;SDS011;57767;42.068;24.752;2023-07-31T01:51:23;3.05;;;2.20;;
70342;SDS011;57767;42.068;24.752;2023-07-31T01:52:25;3.92;;;2.22;;
70342;SDS011;57767;42.068;24.752;2023-07-31T01:53:27;3.00;;;2.35;;
70342;SDS011;57767;42.068;24.752;2023-07-31T01:54:29;4.47;;;2.40;;
70342;SDS011;57767;42.068;24.752;2023-07-31T01:55:31;3.22;;;2.60;;
70342;SDS011;57767;42.068;24.752;2023-07-31T01:56:33;7.70;;;2.67;;
70342;SDS011;57767;42.068;24.752;2023-07-31T01:57:36;4.22;;;2.30;;
70342;SDS011;57767;42.068;24.752;2023-07-31T01:58:38;3.30;;;2.10;;
70342;SDS011;57767;42.068;24.752;2023-07-31T01:59:40;4.78;;;2.47;;
70342;SDS011;57767;42.068;24.752;2023-07-31T02:00:42;6.95;;;2.38;;
70342;SDS011;57767;42.068;24.752;2023-07-31T02:01:44;5.32;;;2.30;;
70342;SDS011;57767;42.068;24.752;2023-07-31T02:02:46;5.22;;;2.53;;
70342;SDS011;57767;42.068;24.752;2023-07-31T02:03:48;6.85;;;2.20;;
70342;SDS011;57767;42.068;24.752;2023-07-31T02:04:49;5.18;;;2.20;;
70342;SDS011;57767;42.068;24.752;2023-07-31T02:05:51;2.78;;;1.90;;
70342;SDS011;57767;42.068;24.752;2023-07-31T02:06:55;4.68;;;2.15;;
70342;SDS011;57767;42.068;24.752;2023-07-31T02:07:57;3.08;;;2.22;;
70342;SDS011;57767;42.068;24.752;2023-07-31T02:08:59;2.20;;;1.90;;
70342;SDS011;57767;42.068;24.752;2023-07-31T02:10:01;5.35;;;2.33;;
70342;SDS011;57767;42.068;24.752;2023-07-31T02:11:03;2.50;;;1.90;;
70342;SDS011;57767;42.068;24.752;2023-07-31T02:12:05;4.13;;;2.17;;
70342;SDS011;57767;42.068;24.752;2023-07-31T02:13:09;3.83;;;1.70;;
70342;SDS011;57767;42.068;24.752;2023-07-31T02:14:11;4.90;;;2.22;;
70342;SDS011;57767;42.068;24.752;2023-07-31T02:15:13;5.93;;;2.35;;
70342;SDS011;57767;42.068;24.752;2023-07-31T02:16:15;2.70;;;1.90;;
70342;SDS011;57767;42.068;24.752;2023-07-31T02:17:19;3.65;;;2.13;;
70342;SDS011;57767;42.068;24.752;2023-07-31T02:18:21;5.00;;;2.15;;
70342;SDS011;57767;42.068;24.752;2023-07-31T02:19:23;2.72;;;2.08;;
70342;SDS011;57767;42.068;24.752;2023-07-31T02:20:25;2.67;;;2.22;;
70342;SDS011;57767;42.068;24.752;2023-07-31T02:21:27;2.55;;;1.75;;
70342;SDS011;57767;42.068;24.752;2023-07-31T02:22:29;3.03;;;1.90;;
70342;SDS011;57767;42.068;24.752;2023-07-31T02:23:31;3.10;;;2.00;;
70342;SDS011;57767;42.068;24.752;2023-07-31T02:24:32;2.45;;;2.15;;
70342;SDS011;57767;42.068;24.752;2023-07-31T02:25:34;6.60;;;2.50;;
70342;SDS011;57767;42.068;24.752;2023-07-31T02:26:36;5.10;;;2.03;;
70342;SDS011;57767;42.068;24.752;2023-07-31T02:27:39;5.63;;;1.88;;
70342;SDS011;57767;42.068;24.752;2023-07-31T02:28:41;3.55;;;2.13;;
70342;SDS011;57767;42.068;24.752;2023-07-31T02:29:44;3.55;;;2.45;;
70342;SDS011;57767;42.068;24.752;2023-07-31T02:30:46;4.18;;;2.60;;
70342;SDS011;57767;42.068;24.752;2023-07-31T02:31:48;3.63;;;2.45;;
70342;SDS011;57767;42.068;24.752;2023-07-31T02:32:50;4.88;;;2.45;;
70342;SDS011;57767;42.068;24.752;2023-07-31T02:33:52;3.53;;;2.63;;
70342;SDS011;57767;42.068;24.752;2023-07-31T02:34:53;3.58;;;2.70;;
70342;SDS011;57767;42.068;24.752;2023-07-31T02:35:55;4.63;;;2.70;;
70342;SDS011;57767;42.068;24.752;2023-07-31T02:36:57;4.00;;;2.90;;
70342;SDS011;57767;42.068;24.752;2023-07-31T02:37:59;5.35;;;3.05;;
70342;SDS011;57767;42.068;24.752;2023-07-31T02:39:01;3.92;;;3.35;;
70342;SDS011;57767;42.068;24.752;2023-07-31T02:40:02;6.25;;;3.40;;
70342;SDS011;57767;42.068;24.752;2023-07-31T02:41:04;5.18;;;3.20;;
70342;SDS011;57767;42.068;24.752;2023-07-31T02:42:06;3.72;;;3.05;;
70342;SDS011;57767;42.068;24.752;2023-07-31T02:43:08;5.40;;;2.95;;
70342;SDS011;57767;42.068;24.752;2023-07-31T02:44:10;4.32;;;3.08;;
70342;SDS011;57767;42.068;24.752;2023-07-31T02:45:15;5.78;;;3.40;;
70342;SDS011;57767;42.068;24.752;2023-07-31T02:46:16;3.83;;;3.03;;
70342;SDS011;57767;42.068;24.752;2023-07-31T02:47:18;4.05;;;3.38;;
70342;SDS011;57767;42.068;24.752;2023-07-31T02:48:20;3.33;;;2.67;;
70342;SDS011;57767;42.068;24.752;2023-07-31T02:49:22;3.38;;;3.03;;
70342;SDS011;57767;42.068;24.752;2023-07-31T02:50:24;3.47;;;3.17;;
70342;SDS011;57767;42.068;24.752;2023-07-31T02:51:26;3.50;;;3.20;;
70342;SDS011;57767;42.068;24.752;2023-07-31T02:52:27;3.42;;;2.97;;
70342;SDS011;57767;42.068;24.752;2023-07-31T02:53:29;4.78;;;3.10;;
70342;SDS011;57767;42.068;24.752;2023-07-31T02:54:31;6.03;;;3.30;;
70342;SDS011;57767;42.068;24.752;2023-07-31T02:55:33;3.75;;;3.25;;
70342;SDS011;57767;42.068;24.752;2023-07-31T02:56:34;3.75;;;3.15;;
70342;SDS011;57767;42.068;24.752;2023-07-31T02:57:39;3.35;;;3.00;;
70342;SDS011;57767;42.068;24.752;2023-07-31T02:58:41;3.40;;;3.10;;
70342;SDS011;57767;42.068;24.752;2023-07-31T02:59:43;4.30;;;3.50;;
70342;SDS011;57767;42.068;24.752;2023-07-31T03:00:45;3.38;;;2.80;;
70342;SDS011;57767;42.068;24.752;2023-07-31T03:01:47;4.63;;;3.10;;
70342;SDS011;57767;42.068;24.752;2023-07-31T03:02:49;3.22;;;2.90;;
70342;SDS011;57767;42.068;24.752;2023-07-31T03:03:50;3.97;;;2.90;;
70342;SDS011;57767;42.068;24.752;2023-07-31T03:04:52;5.00;;;3.17;;
70342;SDS011;57767;42.068;24.752;2023-07-31T03:05:54;3.17;;;2.88;;
70342;SDS011;57767;42.068;24.752;2023-07-31T03:06:56;4.90;;;3.00;;
70342;SDS011;57767;42.068;24.752;2023-07-31T03:07:58;3.65;;;3.22;;
70342;SDS011;57767;42.068;24.752;2023-07-31T03:08:59;3.67;;;3.28;;
70342;SDS011;57767;42.068;24.752;2023-07-31T03:10:01;5.32;;;3.17;;
70342;SDS011;57767;42.068;24.752;2023-07-31T03:11:03;3.88;;;2.72;;
70342;SDS011;57767;42.068;24.752;2023-07-31T03:12:05;6.60;;;2.85;;
70342;SDS011;57767;42.068;24.752;2023-07-31T03:13:07;3.63;;;3.30;;
70342;SDS011;57767;42.068;24.752;2023-07-31T03:14:09;5.78;;;3.22;;
70342;SDS011;57767;42.068;24.752;2023-07-31T03:15:11;3.40;;;3.10;;
70342;SDS011;57767;42.068;24.752;2023-07-31T03:16:12;4.05;;;3.03;;
70342;SDS011;57767;42.068;24.752;2023-07-31T03:17:14;6.15;;;3.60;;
70342;SDS011;57767;42.068;24.752;2023-07-31T03:18:16;3.50;;;3.20;;
70342;SDS011;57767;42.068;24.752;2023-07-31T03:19:18;7.82;;;3.88;;
70342;SDS011;57767;42.068;24.752;2023-07-31T03:20:20;5.55;;;4.15;;
70342;SDS011;57767;42.068;24.752;2023-07-31T03:21:22;4.63;;;3.88;;
70342;SDS011;57767;42.068;24.752;2023-07-31T03:22:24;7.57;;;4.10;;
70342;SDS011;57767;42.068;24.752;2023-07-31T03:23:26;5.63;;;4.00;;
70342;SDS011;57767;42.068;24.752;2023-07-31T03:24:28;8.43;;;4.05;;
70342;SDS011;57767;42.068;24.752;2023-07-31T03:25:30;4.47;;;4.07;;
70342;SDS011;57767;42.068;24.752;2023-07-31T03:26:32;5.05;;;4.03;;
70342;SDS011;57767;42.068;24.752;2023-07-31T03:27:34;4.45;;;3.95;;
70342;SDS011;57767;42.068;24.752;2023-07-31T03:28:36;6.05;;;4.22;;
70342;SDS011;57767;42.068;24.752;2023-07-31T03:29:38;5.05;;;4.03;;
70342;SDS011;57767;42.068;24.752;2023-07-31T03:30:39;4.30;;;3.90;;
70342;SDS011;57767;42.068;24.752;2023-07-31T03:31:41;4.35;;;3.63;;
70342;SDS011;57767;42.068;24.752;2023-07-31T03:32:43;5.07;;;4.07;;
70342;SDS011;57767;42.068;24.752;2023-07-31T03:33:45;4.22;;;3.58;;
70342;SDS011;57767;42.068;24.752;2023-07-31T03:34:47;4.53;;;3.85;;
70342;SDS011;57767;42.068;24.752;2023-07-31T03:35:48;5.72;;;4.20;;
70342;SDS011;57767;42.068;24.752;2023-07-31T03:36:50;4.60;;;4.07;;
70342;SDS011;57767;42.068;24.752;2023-07-31T03:37:52;5.03;;;4.10;;
70342;SDS011;57767;42.068;24.752;2023-07-31T03:38:54;4.78;;;4.20;;
70342;SDS011;57767;42.068;24.752;2023-07-31T03:39:55;6.47;;;4.07;;
70342;SDS011;57767;42.068;24.752;2023-07-31T03:40:57;5.30;;;4.10;;
70342;SDS011;57767;42.068;24.752;2023-07-31T03:42:00;4.45;;;4.05;;
70342;SDS011;57767;42.068;24.752;2023-07-31T03:43:02;4.85;;;4.03;;
70342;SDS011;57767;42.068;24.752;2023-07-31T03:44:03;5.82;;;3.97;;
70342;SDS011;57767;42.068;24.752;2023-07-31T03:45:05;5.28;;;4.22;;
70342;SDS011;57767;42.068;24.752;2023-07-31T03:46:08;10.32;;;4.30;;
70342;SDS011;57767;42.068;24.752;2023-07-31T03:47:10;6.63;;;4.10;;
70342;SDS011;57767;42.068;24.752;2023-07-31T03:48:13;7.18;;;4.00;;
70342;SDS011;57767;42.068;24.752;2023-07-31T03:49:15;8.45;;;4.22;;
70342;SDS011;57767;42.068;24.752;2023-07-31T03:50:17;9.00;;;4.65;;
70342;SDS011;57767;42.068;24.752;2023-07-31T03:51:19;11.52;;;4.65;;
70342;SDS011;57767;42.068;24.752;2023-07-31T03:52:21;6.43;;;4.22;;
70342;SDS011;57767;42.068;24.752;2023-07-31T03:53:23;5.03;;;3.95;;
70342;SDS011;57767;42.068;24.752;2023-07-31T03:54:24;5.82;;;4.30;;
70342;SDS011;57767;42.068;24.752;2023-07-31T03:55:26;7.82;;;4.72;;
70342;SDS011;57767;42.068;24.752;2023-07-31T03:56:28;5.43;;;4.20;;
70342;SDS011;57767;42.068;24.752;2023-07-31T03:57:30;5.18;;;4.68;;
70342;SDS011;57767;42.068;24.752;2023-07-31T03:58:33;6.47;;;4.35;;
70342;SDS011;57767;42.068;24.752;2023-07-31T03:59:36;8.32;;;4.72;;
70342;SDS011;57767;42.068;24.752;2023-07-31T04:00:40;5.05;;;4.35;;
70342;SDS011;57767;42.068;24.752;2023-07-31T04:01:42;6.38;;;4.75;;
70342;SDS011;57767;42.068;24.752;2023-07-31T04:02:44;4.85;;;4.35;;
70342;SDS011;57767;42.068;24.752;2023-07-31T04:03:46;5.43;;;4.50;;
70342;SDS011;57767;42.068;24.752;2023-07-31T04:04:48;6.25;;;4.60;;
70342;SDS011;57767;42.068;24.752;2023-07-31T04:05:49;4.95;;;4.18;;
70342;SDS011;57767;42.068;24.752;2023-07-31T04:06:51;9.65;;;4.50;;
70342;SDS011;57767;42.068;24.752;2023-07-31T04:07:53;4.40;;;4.00;;
70342;SDS011;57767;42.068;24.752;2023-07-31T04:08:55;6.75;;;4.55;;
70342;SDS011;57767;42.068;24.752;2023-07-31T04:09:57;7.10;;;4.30;;
70342;SDS011;57767;42.068;24.752;2023-07-31T04:10:58;4.22;;;3.83;;
70342;SDS011;57767;42.068;24.752;2023-07-31T04:12:00;6.97;;;4.38;;
70342;SDS011;57767;42.068;24.752;2023-07-31T04:13:02;6.18;;;4.07;;
70342;SDS011;57767;42.068;24.752;2023-07-31T04:14:04;5.82;;;4.20;;
70342;SDS011;57767;42.068;24.752;2023-07-31T04:15:07;5.28;;;3.95;;
70342;SDS011;57767;42.068;24.752;2023-07-31T04:16:09;4.90;;;4.38;;
70342;SDS011;57767;42.068;24.752;2023-07-31T04:17:11;5.63;;;3.92;;
70342;SDS011;57767;42.068;24.752;2023-07-31T04:18:13;4.93;;;3.92;;
70342;SDS011;57767;42.068;24.752;2023-07-31T04:19:14;4.13;;;3.72;;
70342;SDS011;57767;42.068;24.752;2023-07-31T04:20:18;4.57;;;3.70;;
70342;SDS011;57767;42.068;24.752;2023-07-31T04:21:20;4.32;;;3.92;;
70342;SDS011;57767;42.068;24.752;2023-07-31T04:22:21;7.10;;;3.90;;
70342;SDS011;57767;42.068;24.752;2023-07-31T04:23:24;5.45;;;3.78;;
70342;SDS011;57767;42.068;24.752;2023-07-31T04:24:26;4.60;;;3.70;;
70342;SDS011;57767;42.068;24.752;2023-07-31T04:25:28;7.35;;;3.78;;
70342;SDS011;57767;42.068;24.752;2023-07-31T04:26:30;4.28;;;3.88;;
70342;SDS011;57767;42.068;24.752;2023-07-31T04:27:31;3.90;;;3.50;;
70342;SDS011;57767;42.068;24.752;2023-07-31T04:28:33;4.13;;;3.72;;
70342;SDS011;57767;42.068;24.752;2023-07-31T04:29:35;4.75;;;3.75;;
70342;SDS011;57767;42.068;24.752;2023-07-31T04:30:37;4.18;;;3.70;;
70342;SDS011;57767;42.068;24.752;2023-07-31T04:31:39;3.80;;;3.38;;
70342;SDS011;57767;42.068;24.752;2023-07-31T04:32:40;4.47;;;4.07;;
70342;SDS011;57767;42.068;24.752;2023-07-31T04:33:42;4.28;;;3.88;;
70342;SDS011;57767;42.068;24.752;2023-07-31T04:34:44;4.55;;;3.88;;
70342;SDS011;57767;42.068;24.752;2023-07-31T04:35:52;5.63;;;3.90;;
70342;SDS011;57767;42.068;24.752;2023-07-31T04:36:55;4.18;;;3.78;;
70342;SDS011;57767;42.068;24.752;2023-07-31T04:37:56;4.90;;;4.43;;
70342;SDS011;57767;42.068;24.752;2023-07-31T04:38:58;5.07;;;4.03;;
70342;SDS011;57767;42.068;24.752;2023-07-31T04:40:00;5.50;;;4.28;;
70342;SDS011;57767;42.068;24.752;2023-07-31T04:41:02;4.70;;;4.25;;
70342;SDS011;57767;42.068;24.752;2023-07-31T04:42:05;4.43;;;4.03;;
70342;SDS011;57767;42.068;24.752;2023-07-31T04:43:07;4.32;;;3.90;;
70342;SDS011;57767;42.068;24.752;2023-07-31T04:44:08;4.68;;;3.85;;
70342;SDS011;57767;42.068;24.752;2023-07-31T04:45:12;4.47;;;3.88;;
70342;SDS011;57767;42.068;24.752;2023-07-31T04:46:14;4.55;;;4.15;;
70342;SDS011;57767;42.068;24.752;2023-07-31T04:47:16;4.40;;;3.90;;
70342;SDS011;57767;42.068;24.752;2023-07-31T04:48:18;4.45;;;3.85;;
70342;SDS011;57767;42.068;24.752;2023-07-31T04:49:19;4.57;;;4.03;;
70342;SDS011;57767;42.068;24.752;2023-07-31T04:50:21;4.35;;;3.95;;
70342;SDS011;57767;42.068;24.752;2023-07-31T04:51:23;4.38;;;3.92;;
70342;SDS011;57767;42.068;24.752;2023-07-31T04:52:26;5.05;;;4.20;;
70342;SDS011;57767;42.068;24.752;2023-07-31T04:53:28;4.43;;;4.03;;
70342;SDS011;57767;42.068;24.752;2023-07-31T04:54:30;4.88;;;4.03;;
70342;SDS011;57767;42.068;24.752;2023-07-31T04:55:31;3.85;;;3.45;;
70342;SDS011;57767;42.068;24.752;2023-07-31T04:56:33;4.18;;;3.58;;
70342;SDS011;57767;42.068;24.752;2023-07-31T04:57:35;5.63;;;4.35;;
70342;SDS011;57767;42.068;24.752;2023-07-31T04:58:37;4.13;;;3.70;;
70342;SDS011;57767;42.068;24.752;2023-07-31T04:59:39;4.55;;;3.70;;
70342;SDS011;57767;42.068;24.752;2023-07-31T05:00:40;4.85;;;4.10;;
70342;SDS011;57767;42.068;24.752;2023-07-31T05:01:42;4.47;;;3.80;;
70342;SDS011;57767;42.068;24.752;2023-07-31T05:02:44;4.82;;;3.95;;
70342;SDS011;57767;42.068;24.752;2023-07-31T05:03:46;4.45;;;4.05;;
70342;SDS011;57767;42.068;24.752;2023-07-31T05:04:48;5.07;;;4.65;;
70342;SDS011;57767;42.068;24.752;2023-07-31T05:05:51;4.35;;;3.80;;
70342;SDS011;57767;42.068;24.752;2023-07-31T05:06:52;5.05;;;3.58;;
70342;SDS011;57767;42.068;24.752;2023-07-31T05:07:54;4.38;;;3.78;;
70342;SDS011;57767;42.068;24.752;2023-07-31T05:08:56;4.13;;;3.45;;
70342;SDS011;57767;42.068;24.752;2023-07-31T05:09:58;7.45;;;4.05;;
70342;SDS011;57767;42.068;24.752;2023-07-31T05:11:00;8.00;;;3.47;;
70342;SDS011;57767;42.068;24.752;2023-07-31T05:12:02;6.72;;;3.90;;
70342;SDS011;57767;42.068;24.752;2023-07-31T05:13:06;4.65;;;3.65;;
70342;SDS011;57767;42.068;24.752;2023-07-31T05:14:07;3.88;;;3.40;;
70342;SDS011;57767;42.068;24.752;2023-07-31T05:15:10;4.20;;;3.80;;
70342;SDS011;57767;42.068;24.752;2023-07-31T05:16:11;4.35;;;3.95;;
70342;SDS011;57767;42.068;24.752;2023-07-31T05:17:13;4.05;;;3.65;;
70342;SDS011;57767;42.068;24.752;2023-07-31T05:18:15;4.85;;;3.80;;
70342;SDS011;57767;42.068;24.752;2023-07-31T05:19:17;6.07;;;3.90;;
70342;SDS011;57767;42.068;24.752;2023-07-31T05:20:19;4.50;;;4.10;;
70342;SDS011;57767;42.068;24.752;2023-07-31T05:21:21;7.05;;;4.90;;
70342;SDS011;57767;42.068;24.752;2023-07-31T05:22:23;5.95;;;4.18;;
70342;SDS011;57767;42.068;24.752;2023-07-31T05:23:24;7.43;;;4.40;;
70342;SDS011;57767;42.068;24.752;2023-07-31T05:24:26;5.25;;;4.50;;
70342;SDS011;57767;42.068;24.752;2023-07-31T05:25:28;5.43;;;4.88;;
70342;SDS011;57767;42.068;24.752;2023-07-31T05:26:32;9.88;;;4.15;;
70342;SDS011;57767;42.068;24.752;2023-07-31T05:27:34;7.30;;;4.22;;
70342;SDS011;57767;42.068;24.752;2023-07-31T05:28:36;6.40;;;3.85;;
70342;SDS011;57767;42.068;24.752;2023-07-31T05:29:38;4.47;;;3.65;;
70342;SDS011;57767;42.068;24.752;2023-07-31T05:30:42;5.40;;;3.95;;
70342;SDS011;57767;42.068;24.752;2023-07-31T05:31:43;4.10;;;3.70;;
70342;SDS011;57767;42.068;24.752;2023-07-31T05:32:45;6.57;;;4.13;;
70342;SDS011;57767;42.068;24.752;2023-07-31T05:33:48;6.63;;;4.00;;
70342;SDS011;57767;42.068;24.752;2023-07-31T05:34:51;6.13;;;3.80;;
70342;SDS011;57767;42.068;24.752;2023-07-31T05:35:54;4.18;;;3.40;;
70342;SDS011;57767;42.068;24.752;2023-07-31T05:36:56;9.68;;;3.60;;
70342;SDS011;57767;42.068;24.752;2023-07-31T05:37:58;4.40;;;3.20;;
70342;SDS011;57767;42.068;24.752;2023-07-31T05:38:59;3.65;;;3.22;;
70342;SDS011;57767;42.068;24.752;2023-07-31T05:40:01;5.47;;;3.40;;
70342;SDS011;57767;42.068;24.752;2023-07-31T05:41:03;4.78;;;3.00;;
70342;SDS011;57767;42.068;24.752;2023-07-31T05:42:05;3.63;;;3.15;;
70342;SDS011;57767;42.068;24.752;2023-07-31T05:43:07;3.75;;;3.35;;
70342;SDS011;57767;42.068;24.752;2023-07-31T05:44:09;4.40;;;3.60;;
70342;SDS011;57767;42.068;24.752;2023-07-31T05:45:11;4.57;;;3.40;;
70342;SDS011;57767;42.068;24.752;2023-07-31T05:46:14;7.10;;;3.50;;
70342;SDS011;57767;42.068;24.752;2023-07-31T05:47:16;5.40;;;3.63;;
70342;SDS011;57767;42.068;24.752;2023-07-31T05:48:18;6.03;;;3.60;;
70342;SDS011;57767;42.068;24.752;2023-07-31T05:49:20;4.95;;;3.50;;
70342;SDS011;57767;42.068;24.752;2023-07-31T05:50:22;5.90;;;4.15;;
70342;SDS011;57767;42.068;24.752;2023-07-31T05:51:25;4.93;;;4.47;;
70342;SDS011;57767;42.068;24.752;2023-07-31T05:52:27;5.90;;;4.25;;
70342;SDS011;57767;42.068;24.752;2023-07-31T05:53:30;5.13;;;4.63;;
70342;SDS011;57767;42.068;24.752;2023-07-31T05:54:32;7.70;;;5.03;;
70342;SDS011;57767;42.068;24.752;2023-07-31T05:55:34;6.70;;;5.00;;
70342;SDS011;57767;42.068;24.752;2023-07-31T05:56:36;6.03;;;5.43;;
70342;SDS011;57767;42.068;24.752;2023-07-31T05:57:38;5.88;;;5.03;;
70342;SDS011;57767;42.068;24.752;2023-07-31T05:58:40;5.72;;;5.22;;
70342;SDS011;57767;42.068;24.752;2023-07-31T05:59:42;5.47;;;4.97;;
70342;SDS011;57767;42.068;24.752;2023-07-31T06:00:44;5.00;;;4.50;;
70342;SDS011;57767;42.068;24.752;2023-07-31T06:01:45;6.20;;;4.93;;
70342;SDS011;57767;42.068;24.752;2023-07-31T06:02:48;6.32;;;4.70;;
70342;SDS011;57767;42.068;24.752;2023-07-31T06:03:50;6.43;;;5.03;;
70342;SDS011;57767;42.068;24.752;2023-07-31T06:04:52;5.00;;;4.55;;
70342;SDS011;57767;42.068;24.752;2023-07-31T06:05:53;7.00;;;4.85;;
70342;SDS011;57767;42.068;24.752;2023-07-31T06:06:56;5.10;;;4.70;;
70342;SDS011;57767;42.068;24.752;2023-07-31T06:07:57;7.70;;;4.88;;
70342;SDS011;57767;42.068;24.752;2023-07-31T06:08:59;8.85;;;4.90;;
70342;SDS011;57767;42.068;24.752;2023-07-31T06:10:01;6.07;;;4.70;;
70342;SDS011;57767;42.068;24.752;2023-07-31T06:11:07;6.28;;;4.80;;
70342;SDS011;57767;42.068;24.752;2023-07-31T06:12:10;5.70;;;5.18;;
70342;SDS011;57767;42.068;24.752;2023-07-31T06:13:12;5.63;;;5.10;;
70342;SDS011;57767;42.068;24.752;2023-07-31T07:04:39;7.55;;;6.55;;
70342;SDS011;57767;42.068;24.752;2023-07-31T07:05:41;7.82;;;7.20;;
70342;SDS011;57767;42.068;24.752;2023-07-31T07:06:43;9.65;;;7.18;;
70342;SDS011;57767;42.068;24.752;2023-07-31T07:07:45;25.02;;;8.07;;
70342;SDS011;57767;42.068;24.752;2023-07-31T07:08:47;7.18;;;6.47;;
70342;SDS011;57767;42.068;24.752;2023-07-31T07:09:48;8.13;;;7.32;;